sensor_id;sensor_type;location;lat;lon;timestamp;P1;durP1;ratioP1;P2;durP2;ratioP2
27618;SDS011;15039;50.830;4.730;2023-12-04T00:00:35;4.85;;;3.72;;
27618;SDS011;15039;50.830;4.730;2023-12-04T00:03:01;5.63;;;4.07;;
27618;SDS011;15039;50.830;4.730;2023-12-04T00:05:26;6.13;;;3.95;;
27618;SDS011;15039;50.830;4.730;2023-12-04T00:07:52;5.10;;;3.80;;
27618;SDS011;15039;50.830;4.730;2023-12-04T00:10:18;4.70;;;3.60;;
27618;SDS011;15039;50.830;4.730;2023-12-04T00:12:43;6.00;;;4.03;;
27618;SDS011;15039;50.830;4.730;2023-12-04T00:15:09;4.40;;;3.72;;
27618;SDS011;15039;50.830;4.730;2023-12-04T00:17:35;6.82;;;4.28;;
27618;SDS011;15039;50.830;4.730;2023-12-04T00:20:05;5.20;;;3.88;;
27618;SDS011;15039;50.830;4.730;2023-12-04T00:22:31;5.07;;;3.65;;
27618;SDS011;15039;50.830;4.730;2023-12-04T00:24:57;4.63;;;3.88;;
27618;SDS011;15039;50.830;4.730;2023-12-04T00:27:23;4.82;;;3.70;;
27618;SDS011;15039;50.830;4.730;2023-12-04T00:29:52;3.93;;;3.20;;
27618;SDS011;15039;50.830;4.730;2023-12-04T00:32:18;4.50;;;4.03;;
27618;SDS011;15039;50.830;4.730;2023-12-04T00:34:43;4.88;;;3.97;;
27618;SDS011;15039;50.830;4.730;2023-12-04T00:37:09;4.90;;;3.65;;
27618;SDS011;15039;50.830;4.730;2023-12-04T00:39:35;4.72;;;3.58;;
27618;SDS011;15039;50.830;4.730;2023-12-04T00:42:00;5.53;;;4.13;;
27618;SDS011;15039;50.830;4.730;2023-12-04T00:44:26;6.13;;;3.70;;
27618;SDS011;15039;50.830;4.730;2023-12-04T00:46:52;4.10;;;3.33;;
27618;SDS011;15039;50.830;4.730;2023-12-04T00:49:17;5.35;;;3.92;;
27618;SDS011;15039;50.830;4.730;2023-12-04T00:51:43;4.22;;;3.45;;
27618;SDS011;15039;50.830;4.730;2023-12-04T00:54:09;4.50;;;3.40;;
27618;SDS011;15039;50.830;4.730;2023-12-04T00:56:37;3.80;;;3.22;;
27618;SDS011;15039;50.830;4.730;2023-12-04T00:59:04;5.50;;;4.07;;
27618;SDS011;15039;50.830;4.730;2023-12-04T01:01:32;4.57;;;3.63;;
27618;SDS011;15039;50.830;4.730;2023-12-04T01:03:58;4.85;;;3.78;;
27618;SDS011;15039;50.830;4.730;2023-12-04T01:06:25;5.13;;;3.88;;
27618;SDS011;15039;50.830;4.730;2023-12-04T01:08:51;5.07;;;3.75;;
27618;SDS011;15039;50.830;4.730;2023-12-04T01:11:17;5.13;;;3.97;;
27618;SDS011;15039;50.830;4.730;2023-12-04T01:13:46;5.28;;;3.60;;
27618;SDS011;15039;50.830;4.730;2023-12-04T01:16:13;4.50;;;3.58;;
27618;SDS011;15039;50.830;4.730;2023-12-04T01:18:38;4.18;;;3.47;;
27618;SDS011;15039;50.830;4.730;2023-12-04T01:21:04;5.45;;;3.90;;
27618;SDS011;15039;50.830;4.730;2023-12-04T01:23:30;4.30;;;3.55;;
27618;SDS011;15039;50.830;4.730;2023-12-04T01:25:56;4.15;;;3.50;;
27618;SDS011;15039;50.830;4.730;2023-12-04T01:28:21;4.63;;;3.47;;
27618;SDS011;15039;50.830;4.730;2023-12-04T01:30:47;5.00;;;3.75;;
27618;SDS011;15039;50.830;4.730;2023-12-04T01:33:13;4.93;;;3.67;;
27618;SDS011;15039;50.830;4.730;2023-12-04T01:35:38;3.80;;;3.15;;
27618;SDS011;15039;50.830;4.730;2023-12-04T01:38:04;4.25;;;3.33;;
27618;SDS011;15039;50.830;4.730;2023-12-04T01:40:29;4.38;;;3.97;;
27618;SDS011;15039;50.830;4.730;2023-12-04T01:42:55;4.45;;;3.10;;
27618;SDS011;15039;50.830;4.730;2023-12-04T01:45:21;5.63;;;4.10;;
27618;SDS011;15039;50.830;4.730;2023-12-04T01:47:46;4.43;;;3.63;;
27618;SDS011;15039;50.830;4.730;2023-12-04T01:50:13;3.67;;;3.20;;
27618;SDS011;15039;50.830;4.730;2023-12-04T01:52:40;3.90;;;3.13;;
27618;SDS011;15039;50.830;4.730;2023-12-04T01:55:07;3.72;;;3.10;;
27618;SDS011;15039;50.830;4.730;2023-12-04T01:57:34;5.90;;;3.75;;
27618;SDS011;15039;50.830;4.730;2023-12-04T02:00:00;4.13;;;3.10;;
27618;SDS011;15039;50.830;4.730;2023-12-04T02:02:29;5.18;;;3.60;;
27618;SDS011;15039;50.830;4.730;2023-12-04T02:04:55;5.22;;;4.03;;
27618;SDS011;15039;50.830;4.730;2023-12-04T02:07:23;4.85;;;3.53;;
27618;SDS011;15039;50.830;4.730;2023-12-04T02:09:49;5.15;;;3.85;;
27618;SDS011;15039;50.830;4.730;2023-12-04T02:12:15;5.00;;;3.70;;
27618;SDS011;15039;50.830;4.730;2023-12-04T02:14:42;5.00;;;4.15;;
27618;SDS011;15039;50.830;4.730;2023-12-04T02:17:08;6.20;;;4.00;;
27618;SDS011;15039;50.830;4.730;2023-12-04T02:19:35;4.47;;;3.80;;
27618;SDS011;15039;50.830;4.730;2023-12-04T02:22:01;4.90;;;3.90;;
27618;SDS011;15039;50.830;4.730;2023-12-04T02:24:27;5.25;;;3.97;;
27618;SDS011;15039;50.830;4.730;2023-12-04T02:26:54;4.93;;;4.20;;
27618;SDS011;15039;50.830;4.730;2023-12-04T02:32:10;5.95;;;4.65;;
27618;SDS011;15039;50.830;4.730;2023-12-04T02:34:39;4.63;;;3.85;;
27618;SDS011;15039;50.830;4.730;2023-12-04T02:37:06;4.93;;;4.10;;
27618;SDS011;15039;50.830;4.730;2023-12-04T02:39:34;4.45;;;3.92;;
27618;SDS011;15039;50.830;4.730;2023-12-04T02:42:01;5.57;;;4.07;;
27618;SDS011;15039;50.830;4.730;2023-12-04T02:44:28;5.88;;;4.00;;
27618;SDS011;15039;50.830;4.730;2023-12-04T02:46:54;4.10;;;3.60;;
27618;SDS011;15039;50.830;4.730;2023-12-04T02:49:19;4.68;;;3.58;;
27618;SDS011;15039;50.830;4.730;2023-12-04T02:51:45;5.15;;;3.70;;
27618;SDS011;15039;50.830;4.730;2023-12-04T02:54:11;4.95;;;3.97;;
27618;SDS011;15039;50.830;4.730;2023-12-04T02:56:37;6.55;;;3.72;;
27618;SDS011;15039;50.830;4.730;2023-12-04T02:59:02;4.72;;;3.55;;
27618;SDS011;15039;50.830;4.730;2023-12-04T03:01:28;4.70;;;3.80;;
27618;SDS011;15039;50.830;4.730;2023-12-04T03:03:54;12.70;;;3.85;;
27618;SDS011;15039;50.830;4.730;2023-12-04T03:06:19;4.90;;;4.25;;
27618;SDS011;15039;50.830;4.730;2023-12-04T03:08:45;5.80;;;3.78;;
27618;SDS011;15039;50.830;4.730;2023-12-04T03:11:11;4.60;;;3.60;;
27618;SDS011;15039;50.830;4.730;2023-12-04T03:13:36;4.05;;;3.55;;
27618;SDS011;15039;50.830;4.730;2023-12-04T03:16:02;4.97;;;3.70;;
27618;SDS011;15039;50.830;4.730;2023-12-04T03:18:28;5.65;;;3.80;;
27618;SDS011;15039;50.830;4.730;2023-12-04T03:20:54;5.00;;;3.50;;
27618;SDS011;15039;50.830;4.730;2023-12-04T03:23:20;4.43;;;3.80;;
27618;SDS011;15039;50.830;4.730;2023-12-04T03:25:45;4.38;;;3.67;;
27618;SDS011;15039;50.830;4.730;2023-12-04T03:28:11;4.70;;;3.78;;
27618;SDS011;15039;50.830;4.730;2023-12-04T03:30:38;5.55;;;3.55;;
27618;SDS011;15039;50.830;4.730;2023-12-04T03:33:04;3.88;;;3.13;;
27618;SDS011;15039;50.830;4.730;2023-12-04T03:35:29;5.65;;;3.53;;
27618;SDS011;15039;50.830;4.730;2023-12-04T03:37:55;4.38;;;3.25;;
27618;SDS011;15039;50.830;4.730;2023-12-04T03:40:21;3.70;;;3.13;;
27618;SDS011;15039;50.830;4.730;2023-12-04T03:42:47;4.00;;;3.30;;
27618;SDS011;15039;50.830;4.730;2023-12-04T03:45:12;3.60;;;3.05;;
27618;SDS011;15039;50.830;4.730;2023-12-04T03:47:38;3.63;;;2.92;;
27618;SDS011;15039;50.830;4.730;2023-12-04T03:50:04;4.15;;;3.25;;
27618;SDS011;15039;50.830;4.730;2023-12-04T03:52:30;4.18;;;3.30;;
27618;SDS011;15039;50.830;4.730;2023-12-04T03:54:56;4.25;;;3.15;;
27618;SDS011;15039;50.830;4.730;2023-12-04T03:57:22;4.18;;;3.30;;
27618;SDS011;15039;50.830;4.730;2023-12-04T03:59:47;3.33;;;2.70;;
27618;SDS011;15039;50.830;4.730;2023-12-04T04:02:13;3.70;;;3.33;;
27618;SDS011;15039;50.830;4.730;2023-12-04T04:04:38;4.43;;;3.05;;
27618;SDS011;15039;50.830;4.730;2023-12-04T04:07:04;3.67;;;3.03;;
27618;SDS011;15039;50.830;4.730;2023-12-04T04:09:30;3.58;;;3.10;;
27618;SDS011;15039;50.830;4.730;2023-12-04T04:11:56;3.80;;;2.90;;
27618;SDS011;15039;50.830;4.730;2023-12-04T04:14:21;4.47;;;3.30;;
27618;SDS011;15039;50.830;4.730;2023-12-04T04:16:49;3.47;;;3.17;;
27618;SDS011;15039;50.830;4.730;2023-12-04T04:19:15;3.47;;;3.00;;
27618;SDS011;15039;50.830;4.730;2023-12-04T04:21:41;3.47;;;2.97;;
27618;SDS011;15039;50.830;4.730;2023-12-04T04:24:06;3.72;;;2.92;;
27618;SDS011;15039;50.830;4.730;2023-12-04T04:26:32;4.05;;;3.22;;
27618;SDS011;15039;50.830;4.730;2023-12-04T04:28:58;3.05;;;2.70;;
27618;SDS011;15039;50.830;4.730;2023-12-04T04:31:24;3.50;;;2.92;;
27618;SDS011;15039;50.830;4.730;2023-12-04T04:33:50;3.10;;;2.83;;
27618;SDS011;15039;50.830;4.730;2023-12-04T04:36:15;2.90;;;2.55;;
27618;SDS011;15039;50.830;4.730;2023-12-04T04:38:41;3.40;;;2.72;;
27618;SDS011;15039;50.830;4.730;2023-12-04T04:41:07;2.70;;;2.50;;
27618;SDS011;15039;50.830;4.730;2023-12-04T04:43:37;3.13;;;2.60;;
27618;SDS011;15039;50.830;4.730;2023-12-04T04:46:03;2.92;;;2.63;;
27618;SDS011;15039;50.830;4.730;2023-12-04T04:48:29;3.30;;;3.00;;
27618;SDS011;15039;50.830;4.730;2023-12-04T04:50:55;4.93;;;3.10;;
27618;SDS011;15039;50.830;4.730;2023-12-04T04:53:20;2.92;;;2.40;;
27618;SDS011;15039;50.830;4.730;2023-12-04T04:55:46;2.95;;;2.65;;
27618;SDS011;15039;50.830;4.730;2023-12-04T04:58:12;3.00;;;2.70;;
27618;SDS011;15039;50.830;4.730;2023-12-04T05:00:37;3.28;;;2.63;;
27618;SDS011;15039;50.830;4.730;2023-12-04T05:03:03;2.80;;;2.33;;
27618;SDS011;15039;50.830;4.730;2023-12-04T05:05:29;3.35;;;2.80;;
27618;SDS011;15039;50.830;4.730;2023-12-04T05:07:54;3.08;;;2.40;;
27618;SDS011;15039;50.830;4.730;2023-12-04T05:10:20;3.15;;;2.75;;
27618;SDS011;15039;50.830;4.730;2023-12-04T05:12:46;2.70;;;2.47;;
27618;SDS011;15039;50.830;4.730;2023-12-04T05:15:11;4.72;;;2.88;;
27618;SDS011;15039;50.830;4.730;2023-12-04T05:17:37;2.50;;;2.28;;
27618;SDS011;15039;50.830;4.730;2023-12-04T05:20:04;4.35;;;2.33;;
27618;SDS011;15039;50.830;4.730;2023-12-04T05:22:30;2.67;;;2.40;;
27618;SDS011;15039;50.830;4.730;2023-12-04T05:27:34;2.50;;;2.30;;
27618;SDS011;15039;50.830;4.730;2023-12-04T05:29:59;3.67;;;2.42;;
27618;SDS011;15039;50.830;4.730;2023-12-04T05:32:26;2.65;;;2.45;;
27618;SDS011;15039;50.830;4.730;2023-12-04T05:34:52;2.50;;;2.30;;
27618;SDS011;15039;50.830;4.730;2023-12-04T05:37:19;2.70;;;2.15;;
27618;SDS011;15039;50.830;4.730;2023-12-04T05:39:45;3.35;;;2.70;;
27618;SDS011;15039;50.830;4.730;2023-12-04T05:42:11;3.35;;;2.30;;
27618;SDS011;15039;50.830;4.730;2023-12-04T05:44:36;3.25;;;2.95;;
27618;SDS011;15039;50.830;4.730;2023-12-04T05:47:02;2.88;;;2.38;;
27618;SDS011;15039;50.830;4.730;2023-12-04T05:49:30;2.90;;;2.42;;
27618;SDS011;15039;50.830;4.730;2023-12-04T05:51:58;3.65;;;2.83;;
27618;SDS011;15039;50.830;4.730;2023-12-04T05:54:23;3.13;;;2.53;;
27618;SDS011;15039;50.830;4.730;2023-12-04T05:56:50;2.92;;;2.38;;
27618;SDS011;15039;50.830;4.730;2023-12-04T05:59:15;3.08;;;2.55;;
27618;SDS011;15039;50.830;4.730;2023-12-04T06:01:41;3.55;;;2.95;;
27618;SDS011;15039;50.830;4.730;2023-12-04T06:04:07;3.45;;;2.60;;
27618;SDS011;15039;50.830;4.730;2023-12-04T06:06:33;3.08;;;2.40;;
27618;SDS011;15039;50.830;4.730;2023-12-04T06:08:58;2.78;;;2.47;;
27618;SDS011;15039;50.830;4.730;2023-12-04T06:11:24;2.80;;;2.60;;
27618;SDS011;15039;50.830;4.730;2023-12-04T06:13:50;6.45;;;2.85;;
27618;SDS011;15039;50.830;4.730;2023-12-04T06:16:16;3.55;;;2.75;;
27618;SDS011;15039;50.830;4.730;2023-12-04T06:18:41;3.25;;;2.38;;
27618;SDS011;15039;50.830;4.730;2023-12-04T06:21:09;2.97;;;2.65;;
27618;SDS011;15039;50.830;4.730;2023-12-04T06:23:35;3.88;;;3.13;;
27618;SDS011;15039;50.830;4.730;2023-12-04T06:26:03;3.35;;;2.90;;
27618;SDS011;15039;50.830;4.730;2023-12-04T06:28:29;3.20;;;2.67;;
27618;SDS011;15039;50.830;4.730;2023-12-04T06:30:55;3.78;;;3.20;;
27618;SDS011;15039;50.830;4.730;2023-12-04T06:33:21;3.88;;;2.80;;
27618;SDS011;15039;50.830;4.730;2023-12-04T06:35:47;3.58;;;2.88;;
27618;SDS011;15039;50.830;4.730;2023-12-04T06:38:14;4.00;;;3.25;;
27618;SDS011;15039;50.830;4.730;2023-12-04T06:40:44;3.53;;;2.97;;
27618;SDS011;15039;50.830;4.730;2023-12-04T06:43:10;2.83;;;2.53;;
27618;SDS011;15039;50.830;4.730;2023-12-04T06:45:36;2.80;;;2.50;;
27618;SDS011;15039;50.830;4.730;2023-12-04T06:48:02;2.90;;;2.60;;
27618;SDS011;15039;50.830;4.730;2023-12-04T06:50:28;3.00;;;2.67;;
27618;SDS011;15039;50.830;4.730;2023-12-04T06:52:56;4.50;;;3.08;;
27618;SDS011;15039;50.830;4.730;2023-12-04T06:55:22;3.22;;;2.78;;
27618;SDS011;15039;50.830;4.730;2023-12-04T06:57:48;3.38;;;2.90;;
27618;SDS011;15039;50.830;4.730;2023-12-04T07:00:16;4.03;;;2.90;;
27618;SDS011;15039;50.830;4.730;2023-12-04T07:02:42;5.97;;;2.97;;
27618;SDS011;15039;50.830;4.730;2023-12-04T07:05:09;3.85;;;2.85;;
27618;SDS011;15039;50.830;4.730;2023-12-04T07:07:35;3.65;;;2.60;;
27618;SDS011;15039;50.830;4.730;2023-12-04T07:10:00;3.50;;;3.20;;
27618;SDS011;15039;50.830;4.730;2023-12-04T07:12:26;4.30;;;2.80;;
27618;SDS011;15039;50.830;4.730;2023-12-04T07:14:52;3.03;;;2.65;;
27618;SDS011;15039;50.830;4.730;2023-12-04T07:17:18;3.30;;;3.00;;
27618;SDS011;15039;50.830;4.730;2023-12-04T07:19:47;3.25;;;2.95;;
27618;SDS011;15039;50.830;4.730;2023-12-04T07:22:13;3.63;;;2.83;;
27618;SDS011;15039;50.830;4.730;2023-12-04T07:24:39;3.45;;;2.78;;
27618;SDS011;15039;50.830;4.730;2023-12-04T07:27:05;3.75;;;3.17;;
27618;SDS011;15039;50.830;4.730;2023-12-04T07:29:31;3.13;;;2.75;;
27618;SDS011;15039;50.830;4.730;2023-12-04T07:31:57;3.08;;;2.78;;
27618;SDS011;15039;50.830;4.730;2023-12-04T07:34:24;3.80;;;3.00;;
27618;SDS011;15039;50.830;4.730;2023-12-04T07:36:49;3.58;;;2.97;;
27618;SDS011;15039;50.830;4.730;2023-12-04T07:39:15;3.35;;;3.00;;
27618;SDS011;15039;50.830;4.730;2023-12-04T07:41:41;3.10;;;2.80;;
27618;SDS011;15039;50.830;4.730;2023-12-04T07:44:07;3.60;;;2.83;;
27618;SDS011;15039;50.830;4.730;2023-12-04T07:46:33;3.65;;;2.85;;
27618;SDS011;15039;50.830;4.730;2023-12-04T07:48:59;3.30;;;2.70;;
27618;SDS011;15039;50.830;4.730;2023-12-04T07:51:25;5.00;;;3.38;;
27618;SDS011;15039;50.830;4.730;2023-12-04T07:53:51;3.78;;;2.92;;
27618;SDS011;15039;50.830;4.730;2023-12-04T07:56:16;3.08;;;2.70;;
27618;SDS011;15039;50.830;4.730;2023-12-04T07:58:42;3.67;;;2.83;;
27618;SDS011;15039;50.830;4.730;2023-12-04T08:01:11;3.47;;;3.00;;
27618;SDS011;15039;50.830;4.730;2023-12-04T08:03:39;3.40;;;3.10;;
27618;SDS011;15039;50.830;4.730;2023-12-04T08:06:05;3.35;;;2.80;;
27618;SDS011;15039;50.830;4.730;2023-12-04T08:08:31;3.38;;;2.95;;
27618;SDS011;15039;50.830;4.730;2023-12-04T08:10:57;4.20;;;2.88;;
27618;SDS011;15039;50.830;4.730;2023-12-04T08:13:23;3.33;;;3.00;;
27618;SDS011;15039;50.830;4.730;2023-12-04T08:15:49;3.35;;;2.60;;
27618;SDS011;15039;50.830;4.730;2023-12-04T08:18:15;3.38;;;3.08;;
27618;SDS011;15039;50.830;4.730;2023-12-04T08:20:41;3.60;;;2.72;;
27618;SDS011;15039;50.830;4.730;2023-12-04T08:23:07;5.38;;;2.63;;
27618;SDS011;15039;50.830;4.730;2023-12-04T08:25:33;3.13;;;2.80;;
27618;SDS011;15039;50.830;4.730;2023-12-04T08:28:06;3.22;;;2.75;;
27618;SDS011;15039;50.830;4.730;2023-12-04T08:30:33;3.10;;;2.80;;
27618;SDS011;15039;50.830;4.730;2023-12-04T08:33:01;3.13;;;2.80;;
27618;SDS011;15039;50.830;4.730;2023-12-04T08:35:27;3.25;;;2.88;;
27618;SDS011;15039;50.830;4.730;2023-12-04T08:37:53;3.22;;;2.90;;
27618;SDS011;15039;50.830;4.730;2023-12-04T08:40:19;3.38;;;2.70;;
27618;SDS011;15039;50.830;4.730;2023-12-04T08:42:45;2.95;;;2.33;;
27618;SDS011;15039;50.830;4.730;2023-12-04T08:45:10;4.97;;;2.45;;
27618;SDS011;15039;50.830;4.730;2023-12-04T08:47:37;3.20;;;2.70;;
27618;SDS011;15039;50.830;4.730;2023-12-04T08:50:03;3.22;;;2.80;;
27618;SDS011;15039;50.830;4.730;2023-12-04T08:52:30;3.17;;;2.60;;
27618;SDS011;15039;50.830;4.730;2023-12-04T08:54:56;3.33;;;3.03;;
27618;SDS011;15039;50.830;4.730;2023-12-04T08:57:21;3.67;;;2.65;;
27618;SDS011;15039;50.830;4.730;2023-12-04T08:59:47;3.90;;;2.83;;
27618;SDS011;15039;50.830;4.730;2023-12-04T09:02:13;4.85;;;3.10;;
27618;SDS011;15039;50.830;4.730;2023-12-04T09:04:38;3.75;;;2.88;;
27618;SDS011;15039;50.830;4.730;2023-12-04T09:07:04;3.38;;;2.83;;
27618;SDS011;15039;50.830;4.730;2023-12-04T09:09:30;3.78;;;2.85;;
27618;SDS011;15039;50.830;4.730;2023-12-04T09:12:16;3.25;;;2.95;;
27618;SDS011;15039;50.830;4.730;2023-12-04T09:14:42;3.75;;;2.97;;
27618;SDS011;15039;50.830;4.730;2023-12-04T09:17:08;4.30;;;3.00;;
27618;SDS011;15039;50.830;4.730;2023-12-04T09:19:34;3.17;;;2.78;;
27618;SDS011;15039;50.830;4.730;2023-12-04T09:21:59;3.78;;;2.53;;
27618;SDS011;15039;50.830;4.730;2023-12-04T09:24:25;4.45;;;3.17;;
27618;SDS011;15039;50.830;4.730;2023-12-04T09:26:52;4.25;;;3.28;;
27618;SDS011;15039;50.830;4.730;2023-12-04T09:29:18;3.13;;;2.83;;
27618;SDS011;15039;50.830;4.730;2023-12-04T09:31:48;4.72;;;3.30;;
27618;SDS011;15039;50.830;4.730;2023-12-04T09:34:15;4.00;;;3.08;;
27618;SDS011;15039;50.830;4.730;2023-12-04T09:36:49;3.40;;;2.90;;
27618;SDS011;15039;50.830;4.730;2023-12-04T09:39:14;5.10;;;3.30;;
27618;SDS011;15039;50.830;4.730;2023-12-04T09:41:41;4.53;;;3.38;;
27618;SDS011;15039;50.830;4.730;2023-12-04T09:44:09;3.25;;;2.90;;
27618;SDS011;15039;50.830;4.730;2023-12-04T09:46:34;4.35;;;3.22;;
27618;SDS011;15039;50.830;4.730;2023-12-04T09:49:00;5.20;;;3.20;;
27618;SDS011;15039;50.830;4.730;2023-12-04T09:54:25;4.53;;;3.40;;
27618;SDS011;15039;50.830;4.730;2023-12-04T09:56:52;3.47;;;3.17;;
27618;SDS011;15039;50.830;4.730;2023-12-04T09:59:20;3.65;;;3.28;;
27618;SDS011;15039;50.830;4.730;2023-12-04T10:04:31;5.18;;;3.38;;
27618;SDS011;15039;50.830;4.730;2023-12-04T10:07:00;4.45;;;3.60;;
27618;SDS011;15039;50.830;4.730;2023-12-04T10:09:28;6.80;;;3.67;;
27618;SDS011;15039;50.830;4.730;2023-12-04T10:14:23;4.72;;;3.88;;
27618;SDS011;15039;50.830;4.730;2023-12-04T10:16:52;4.70;;;3.73;;
27618;SDS011;15039;50.830;4.730;2023-12-04T10:22:26;4.47;;;3.58;;
27618;SDS011;15039;50.830;4.730;2023-12-04T10:25:00;4.47;;;3.70;;
27618;SDS011;15039;50.830;4.730;2023-12-04T10:30:52;4.93;;;3.80;;
27618;SDS011;15039;50.830;4.730;2023-12-04T10:33:21;5.25;;;3.70;;
27618;SDS011;15039;50.830;4.730;2023-12-04T10:36:48;4.40;;;3.90;;
27618;SDS011;15039;50.830;4.730;2023-12-04T10:42:02;5.15;;;4.03;;
27618;SDS011;15039;50.830;4.730;2023-12-04T10:44:31;6.70;;;4.78;;
27618;SDS011;15039;50.830;4.730;2023-12-04T10:46:57;6.65;;;4.35;;
27618;SDS011;15039;50.830;4.730;2023-12-04T10:49:26;4.30;;;3.90;;
27618;SDS011;15039;50.830;4.730;2023-12-04T10:51:55;5.13;;;4.05;;
27618;SDS011;15039;50.830;4.730;2023-12-04T10:54:25;5.20;;;4.68;;
27618;SDS011;15039;50.830;4.730;2023-12-04T10:56:52;6.65;;;4.57;;
27618;SDS011;15039;50.830;4.730;2023-12-04T10:59:21;6.43;;;5.13;;
27618;SDS011;15039;50.830;4.730;2023-12-04T11:01:52;7.80;;;4.55;;
27618;SDS011;15039;50.830;4.730;2023-12-04T11:04:21;5.85;;;4.70;;
27618;SDS011;15039;50.830;4.730;2023-12-04T11:06:52;7.90;;;5.53;;
27618;SDS011;15039;50.830;4.730;2023-12-04T11:09:23;5.68;;;4.95;;
27618;SDS011;15039;50.830;4.730;2023-12-04T11:11:53;6.93;;;5.05;;
27618;SDS011;15039;50.830;4.730;2023-12-04T11:14:25;6.93;;;4.88;;
27618;SDS011;15039;50.830;4.730;2023-12-04T11:17:04;6.43;;;5.45;;
27618;SDS011;15039;50.830;4.730;2023-12-04T11:22:10;7.22;;;5.03;;
27618;SDS011;15039;50.830;4.730;2023-12-04T11:24:39;9.18;;;5.38;;
27618;SDS011;15039;50.830;4.730;2023-12-04T11:27:04;7.93;;;5.32;;
27618;SDS011;15039;50.830;4.730;2023-12-04T11:29:31;6.70;;;4.88;;
27618;SDS011;15039;50.830;4.730;2023-12-04T11:31:58;6.75;;;5.53;;
27618;SDS011;15039;50.830;4.730;2023-12-04T11:34:24;6.97;;;5.55;;
27618;SDS011;15039;50.830;4.730;2023-12-04T11:36:50;8.15;;;5.45;;
27618;SDS011;15039;50.830;4.730;2023-12-04T11:39:17;5.95;;;4.97;;
27618;SDS011;15039;50.830;4.730;2023-12-04T11:41:47;7.45;;;5.25;;
27618;SDS011;15039;50.830;4.730;2023-12-04T11:47:16;6.70;;;5.97;;
27618;SDS011;15039;50.830;4.730;2023-12-04T11:49:42;6.47;;;5.68;;
27618;SDS011;15039;50.830;4.730;2023-12-04T11:52:09;6.35;;;5.03;;
27618;SDS011;15039;50.830;4.730;2023-12-04T11:57:32;6.28;;;5.18;;
27618;SDS011;15039;50.830;4.730;2023-12-04T12:00:09;7.68;;;5.95;;
27618;SDS011;15039;50.830;4.730;2023-12-04T12:03:00;8.00;;;5.50;;
27618;SDS011;15039;50.830;4.730;2023-12-04T12:05:31;6.10;;;5.40;;
27618;SDS011;15039;50.830;4.730;2023-12-04T12:08:02;6.28;;;4.88;;
27618;SDS011;15039;50.830;4.730;2023-12-04T12:10:28;6.70;;;4.82;;
27618;SDS011;15039;50.830;4.730;2023-12-04T12:12:54;6.57;;;5.00;;
27618;SDS011;15039;50.830;4.730;2023-12-04T12:15:21;6.13;;;5.35;;
27618;SDS011;15039;50.830;4.730;2023-12-04T12:17:47;5.93;;;5.00;;
27618;SDS011;15039;50.830;4.730;2023-12-04T12:20:16;6.30;;;5.18;;
27618;SDS011;15039;50.830;4.730;2023-12-04T12:22:42;5.68;;;5.05;;
27618;SDS011;15039;50.830;4.730;2023-12-04T12:25:11;6.03;;;4.82;;
27618;SDS011;15039;50.830;4.730;2023-12-04T12:27:37;5.00;;;4.50;;
27618;SDS011;15039;50.830;4.730;2023-12-04T12:30:03;6.78;;;5.20;;
27618;SDS011;15039;50.830;4.730;2023-12-04T12:32:33;5.30;;;4.40;;
27618;SDS011;15039;50.830;4.730;2023-12-04T12:34:59;5.38;;;4.70;;
27618;SDS011;15039;50.830;4.730;2023-12-04T12:37:25;5.82;;;4.32;;
27618;SDS011;15039;50.830;4.730;2023-12-04T12:39:51;6.47;;;4.47;;
27618;SDS011;15039;50.830;4.730;2023-12-04T12:42:35;5.95;;;4.60;;
27618;SDS011;15039;50.830;4.730;2023-12-04T12:45:04;4.70;;;4.20;;
27618;SDS011;15039;50.830;4.730;2023-12-04T12:47:30;4.35;;;3.95;;
27618;SDS011;15039;50.830;4.730;2023-12-04T12:49:56;7.15;;;4.10;;
27618;SDS011;15039;50.830;4.730;2023-12-04T12:52:21;5.15;;;4.65;;
27618;SDS011;15039;50.830;4.730;2023-12-04T12:54:47;4.72;;;4.10;;
27618;SDS011;15039;50.830;4.730;2023-12-04T12:57:13;5.03;;;4.53;;
27618;SDS011;15039;50.830;4.730;2023-12-04T12:59:39;5.22;;;4.07;;
27618;SDS011;15039;50.830;4.730;2023-12-04T13:02:05;4.22;;;3.83;;
27618;SDS011;15039;50.830;4.730;2023-12-04T13:04:35;4.00;;;3.38;;
27618;SDS011;15039;50.830;4.730;2023-12-04T13:07:05;4.38;;;3.50;;
27618;SDS011;15039;50.830;4.730;2023-12-04T13:09:32;4.35;;;3.80;;
27618;SDS011;15039;50.830;4.730;2023-12-04T13:11:58;3.78;;;3.38;;
27618;SDS011;15039;50.830;4.730;2023-12-04T13:14:24;3.85;;;3.30;;
27618;SDS011;15039;50.830;4.730;2023-12-04T13:16:50;3.35;;;2.97;;
27618;SDS011;15039;50.830;4.730;2023-12-04T13:19:16;3.42;;;3.13;;
27618;SDS011;15039;50.830;4.730;2023-12-04T13:21:42;3.95;;;2.85;;
27618;SDS011;15039;50.830;4.730;2023-12-04T13:24:09;2.90;;;2.70;;
27618;SDS011;15039;50.830;4.730;2023-12-04T13:26:36;2.50;;;2.30;;
27618;SDS011;15039;50.830;4.730;2023-12-04T13:29:14;2.60;;;2.40;;
27618;SDS011;15039;50.830;4.730;2023-12-04T13:31:41;2.85;;;2.65;;
27618;SDS011;15039;50.830;4.730;2023-12-04T13:34:06;2.50;;;2.30;;
27618;SDS011;15039;50.830;4.730;2023-12-04T13:36:33;2.35;;;2.15;;
27618;SDS011;15039;50.830;4.730;2023-12-04T13:39:01;2.67;;;2.47;;
27618;SDS011;15039;50.830;4.730;2023-12-04T13:41:29;2.85;;;2.60;;
27618;SDS011;15039;50.830;4.730;2023-12-04T13:44:13;2.25;;;2.05;;
27618;SDS011;15039;50.830;4.730;2023-12-04T13:46:40;2.70;;;2.30;;
27618;SDS011;15039;50.830;4.730;2023-12-04T13:49:06;2.78;;;2.50;;
27618;SDS011;15039;50.830;4.730;2023-12-04T13:51:31;2.67;;;2.42;;
27618;SDS011;15039;50.830;4.730;2023-12-04T13:54:00;3.15;;;2.40;;
27618;SDS011;15039;50.830;4.730;2023-12-04T13:56:40;2.58;;;2.15;;
27618;SDS011;15039;50.830;4.730;2023-12-04T13:59:18;3.05;;;2.40;;
27618;SDS011;15039;50.830;4.730;2023-12-04T14:01:45;2.45;;;2.25;;
27618;SDS011;15039;50.830;4.730;2023-12-04T14:04:12;3.00;;;2.60;;
27618;SDS011;15039;50.830;4.730;2023-12-04T14:06:37;2.67;;;2.45;;
27618;SDS011;15039;50.830;4.730;2023-12-04T14:09:03;3.40;;;2.83;;
27618;SDS011;15039;50.830;4.730;2023-12-04T14:11:36;3.85;;;3.10;;
27618;SDS011;15039;50.830;4.730;2023-12-04T14:14:02;3.25;;;2.90;;
27618;SDS011;15039;50.830;4.730;2023-12-04T14:16:29;2.75;;;2.55;;
27618;SDS011;15039;50.830;4.730;2023-12-04T14:18:55;2.78;;;2.58;;
27618;SDS011;15039;50.830;4.730;2023-12-04T14:21:22;3.20;;;2.90;;
27618;SDS011;15039;50.830;4.730;2023-12-04T14:23:51;3.67;;;2.60;;
27618;SDS011;15039;50.830;4.730;2023-12-04T14:26:16;2.97;;;2.75;;
27618;SDS011;15039;50.830;4.730;2023-12-04T14:28:42;2.85;;;2.30;;
27618;SDS011;15039;50.830;4.730;2023-12-04T14:31:08;2.75;;;2.28;;
27618;SDS011;15039;50.830;4.730;2023-12-04T14:33:38;3.10;;;2.80;;
27618;SDS011;15039;50.830;4.730;2023-12-04T14:36:04;2.50;;;2.30;;
27618;SDS011;15039;50.830;4.730;2023-12-04T14:38:34;3.15;;;2.63;;
27618;SDS011;15039;50.830;4.730;2023-12-04T14:41:00;2.85;;;2.65;;
27618;SDS011;15039;50.830;4.730;2023-12-04T14:43:26;2.90;;;2.65;;
27618;SDS011;15039;50.830;4.730;2023-12-04T14:45:52;2.67;;;2.45;;
27618;SDS011;15039;50.830;4.730;2023-12-04T14:48:18;2.40;;;2.20;;
27618;SDS011;15039;50.830;4.730;2023-12-04T14:50:44;2.85;;;2.65;;
27618;SDS011;15039;50.830;4.730;2023-12-04T14:53:10;4.07;;;2.85;;
27618;SDS011;15039;50.830;4.730;2023-12-04T14:55:53;2.72;;;2.53;;
27618;SDS011;15039;50.830;4.730;2023-12-04T14:58:37;2.70;;;2.50;;
27618;SDS011;15039;50.830;4.730;2023-12-04T15:01:10;3.03;;;2.70;;
27618;SDS011;15039;50.830;4.730;2023-12-04T15:03:54;3.88;;;2.90;;
27618;SDS011;15039;50.830;4.730;2023-12-04T15:06:39;3.95;;;2.65;;
27618;SDS011;15039;50.830;4.730;2023-12-04T15:09:23;2.85;;;2.58;;
27618;SDS011;15039;50.830;4.730;2023-12-04T15:12:04;3.70;;;3.05;;
27618;SDS011;15039;50.830;4.730;2023-12-04T15:14:50;2.97;;;2.58;;
27618;SDS011;15039;50.830;4.730;2023-12-04T15:17:36;2.58;;;2.38;;
27618;SDS011;15039;50.830;4.730;2023-12-04T15:20:16;3.47;;;2.83;;